Time;durP1;ratioP1;P1;durP2;ratioP2;P2;SDS_P1;SDS_P2;PMS_P1;PMS_P2;Temp;Humidity;BMP_temperature;BMP_pressure;BME280_temperature;BME280_humidity;BME280_pressure;Samples;Min_cycle;Max_cycle;Signal;HPM_P1;HPM_P2
2022/02/28 00:00:36;;;;;;;14.45;11.45;;;1.20;99.90;;;;;;5009211;28;20026;-72
2022/02/28 00:03:03;;;;;;;13.80;11.93;;;1.20;99.90;;;;;;5011781;28;20026;-72
2022/02/28 00:05:29;;;;;;;14.70;12.43;;;1.20;99.90;;;;;;5004420;28;20381;-72
2022/02/28 00:07:55;;;;;;;14.15;12.52;;;1.20;99.90;;;;;;5012038;28;20022;-72
2022/02/28 00:10:22;;;;;;;12.25;10.95;;;1.20;99.90;;;;;;5022948;28;20031;-72
2022/02/28 00:12:47;;;;;;;14.68;12.55;;;1.10;99.90;;;;;;5031072;28;20024;-72
2022/02/28 00:15:15;;;;;;;12.90;11.55;;;1.10;99.90;;;;;;5026431;28;20092;-72
2022/02/28 00:17:40;;;;;;;13.23;11.65;;;1.10;99.90;;;;;;5012012;28;20545;-73
2022/02/28 00:20:08;;;;;;;13.68;11.80;;;1.10;99.90;;;;;;5004217;28;20026;-73
2022/02/28 00:22:34;;;;;;;15.38;12.63;;;1.10;99.90;;;;;;5022848;28;20032;-73
2022/02/28 00:25:01;;;;;;;14.18;12.05;;;1.20;99.90;;;;;;5025688;28;20030;-73
2022/02/28 00:27:26;;;;;;;14.27;12.27;;;1.10;99.90;;;;;;5019955;28;20076;-73
2022/02/28 00:29:52;;;;;;;13.73;12.13;;;1.00;99.90;;;;;;5019306;28;20026;-74
2022/02/28 00:32:22;;;;;;;15.68;13.15;;;0.70;99.90;;;;;;5023219;28;20033;-74
2022/02/28 00:34:48;;;;;;;16.85;12.98;;;0.60;99.90;;;;;;5014221;28;20048;-73
2022/02/28 00:37:14;;;;;;;16.10;13.82;;;0.40;99.90;;;;;;5009438;28;20057;-72
2022/02/28 00:39:40;;;;;;;15.35;12.88;;;0.40;99.90;;;;;;4999373;28;20026;-72
2022/02/28 00:42:05;;;;;;;15.60;13.07;;;0.60;99.90;;;;;;5010378;28;20110;-72
2022/02/28 00:44:31;;;;;;;14.95;12.52;;;0.50;99.90;;;;;;5012932;28;20027;-72
2022/02/28 00:46:57;;;;;;;15.13;13.18;;;0.50;99.90;;;;;;5025280;28;20110;-72
2022/02/28 00:49:22;;;;;;;16.85;13.65;;;0.40;99.90;;;;;;5019394;28;20029;-72
2022/02/28 00:51:48;;;;;;;16.23;13.65;;;-0.10;99.90;;;;;;5013616;28;20027;-72
2022/02/28 00:54:13;;;;;;;16.77;14.02;;;-0.30;99.90;;;;;;5010166;28;20045;-72
2022/02/28 00:56:39;;;;;;;16.85;14.85;;;-0.30;99.90;;;;;;5013264;28;20026;-72
2022/02/28 00:59:05;;;;;;;15.60;13.85;;;-0.40;99.90;;;;;;5002622;28;20085;-72
2022/02/28 01:01:30;;;;;;;16.20;13.88;;;-0.60;99.90;;;;;;5027553;28;20025;-72
2022/02/28 01:03:56;;;;;;;16.40;13.55;;;-0.60;99.90;;;;;;5025138;28;20510;-73
2022/02/28 01:06:22;;;;;;;16.83;14.55;;;-0.60;99.90;;;;;;5020020;28;20026;-72
2022/02/28 01:08:48;;;;;;;16.27;14.20;;;-0.60;99.90;;;;;;5027299;28;20105;-72
2022/02/28 01:11:13;;;;;;;15.55;13.95;;;-0.60;99.90;;;;;;5010683;28;20097;-73
2022/02/28 01:13:39;;;;;;;17.00;15.00;;;-0.60;99.90;;;;;;5025467;28;20410;-72
2022/02/28 01:16:04;;;;;;;18.27;15.00;;;-0.70;99.90;;;;;;5011367;28;20052;-72
2022/02/28 01:18:30;;;;;;;18.15;14.82;;;-0.70;99.90;;;;;;5019369;28;20026;-72
2022/02/28 01:20:56;;;;;;;15.73;14.02;;;-0.70;99.90;;;;;;5015511;28;20479;-72
2022/02/28 01:23:21;;;;;;;16.52;13.95;;;-0.80;99.90;;;;;;5014993;28;20022;-72
2022/02/28 01:25:47;;;;;;;17.00;14.07;;;-0.90;99.90;;;;;;5010758;28;20029;-72
2022/02/28 01:28:12;;;;;;;16.17;14.48;;;-0.80;99.90;;;;;;4996333;28;20026;-72
2022/02/28 01:30:38;;;;;;;19.05;14.60;;;-0.90;99.90;;;;;;5012872;28;20026;-72
2022/02/28 01:33:05;;;;;;;16.48;14.75;;;-0.90;99.90;;;;;;5016751;28;20105;-72
2022/02/28 01:35:31;;;;;;;20.70;18.50;;;-0.90;99.90;;;;;;5020417;28;20372;-71
2022/02/28 01:37:57;;;;;;;29.13;23.52;;;-1.00;99.90;;;;;;5027292;28;20033;-72
2022/02/28 01:40:24;;;;;;;25.23;21.15;;;-1.00;99.90;;;;;;5021424;28;20060;-73
2022/02/28 01:42:49;;;;;;;27.17;21.42;;;-1.00;99.90;;;;;;5005327;28;20106;-73
2022/02/28 01:45:17;;;;;;;23.23;19.27;;;-0.90;99.90;;;;;;5031347;28;20096;-74
2022/02/28 01:47:42;;;;;;;19.40;15.95;;;-0.90;99.90;;;;;;5020265;28;20018;-73
2022/02/28 01:50:09;;;;;;;18.27;16.00;;;-0.90;99.90;;;;;;5018730;28;20506;-74
2022/02/28 01:52:35;;;;;;;19.48;16.35;;;-0.90;99.90;;;;;;4995289;28;20108;-73
2022/02/28 01:55:01;;;;;;;18.38;16.13;;;-1.00;99.90;;;;;;5005386;28;20475;-73
2022/02/28 01:57:27;;;;;;;18.55;16.20;;;-1.00;99.90;;;;;;5025977;28;20503;-73
2022/02/28 01:59:52;;;;;;;18.52;16.45;;;-1.10;99.90;;;;;;5025142;28;20032;-72
2022/02/28 02:02:18;;;;;;;18.85;15.68;;;-1.20;99.90;;;;;;5017355;28;20028;-72
2022/02/28 02:04:44;;;;;;;20.80;16.27;;;-1.10;99.90;;;;;;5027602;28;20067;-72
2022/02/28 02:07:10;;;;;;;18.35;15.90;;;-1.20;99.90;;;;;;5003330;28;20026;-73
2022/02/28 02:09:36;;;;;;;17.80;15.02;;;-1.10;99.90;;;;;;5013504;28;20046;-73
2022/02/28 02:12:04;;;;;;;19.15;14.07;;;-1.20;99.90;;;;;;5010433;28;20028;-73
2022/02/28 02:14:32;;;;;;;17.48;15.65;;;-1.30;99.90;;;;;;5005533;28;20102;-72
2022/02/28 02:16:58;;;;;;;18.80;15.50;;;-1.30;99.90;;;;;;5005595;28;20148;-73
2022/02/28 02:19:23;;;;;;;18.50;15.68;;;-1.30;99.90;;;;;;5004374;28;20111;-73
2022/02/28 02:21:49;;;;;;;18.23;15.25;;;-1.30;99.90;;;;;;5013989;28;20030;-73
2022/02/28 02:24:15;;;;;;;17.52;15.55;;;-1.30;99.90;;;;;;5028506;28;20110;-72
2022/02/28 02:26:40;;;;;;;20.13;16.33;;;-1.30;99.90;;;;;;4997590;28;20082;-72
2022/02/28 02:29:06;;;;;;;19.40;17.02;;;-1.50;99.90;;;;;;5010574;28;20720;-72
2022/02/28 02:31:31;;;;;;;20.02;15.93;;;-1.40;99.90;;;;;;5016645;28;20033;-72
2022/02/28 02:33:57;;;;;;;19.48;15.65;;;-1.50;99.90;;;;;;5020122;28;20104;-71
2022/02/28 02:36:23;;;;;;;16.63;14.85;;;-1.60;99.90;;;;;;5005748;28;20054;-72
2022/02/28 02:38:50;;;;;;;18.35;16.08;;;-1.50;99.90;;;;;;5007536;28;20026;-72
2022/02/28 02:41:16;;;;;;;20.83;17.50;;;-1.50;99.90;;;;;;5012580;28;20163;-71
2022/02/28 02:43:41;;;;;;;17.23;15.27;;;-1.50;99.90;;;;;;5020349;28;20108;-72
2022/02/28 02:46:07;;;;;;;20.50;17.95;;;-1.40;99.90;;;;;;5022795;28;20035;-72
2022/02/28 02:48:33;;;;;;;18.40;16.45;;;-1.50;99.90;;;;;;5019045;28;20061;-72
2022/02/28 02:50:58;;;;;;;19.20;16.35;;;-1.50;99.90;;;;;;5012486;28;20494;-73
2022/02/28 02:53:24;;;;;;;22.17;17.55;;;-1.50;99.90;;;;;;5023442;28;20510;-72
2022/02/28 02:55:49;;;;;;;20.08;17.02;;;-1.50;99.90;;;;;;5013055;28;20117;-72
2022/02/28 02:58:15;;;;;;;21.77;17.65;;;-1.60;99.90;;;;;;5025368;28;20033;-72
2022/02/28 03:00:42;;;;;;;17.65;15.75;;;-1.50;99.90;;;;;;5002979;28;20026;-72
2022/02/28 03:03:09;;;;;;;18.48;16.38;;;-1.50;99.90;;;;;;5011607;28;20014;-73
2022/02/28 03:05:35;;;;;;;20.17;16.92;;;-1.50;99.90;;;;;;5025307;28;20418;-72
2022/02/28 03:08:01;;;;;;;18.60;16.33;;;-1.50;99.90;;;;;;5027459;28;20399;-72
2022/02/28 03:10:27;;;;;;;18.48;16.48;;;-1.60;99.90;;;;;;5010659;28;20033;-72
2022/02/28 03:12:53;;;;;;;19.95;16.55;;;-1.70;99.90;;;;;;5013436;28;20029;-72
2022/02/28 03:15:18;;;;;;;21.02;17.73;;;-1.70;99.90;;;;;;5015209;28;20490;-72
2022/02/28 03:17:44;;;;;;;21.05;17.15;;;-1.70;99.90;;;;;;5025488;28;20043;-72
2022/02/28 03:20:10;;;;;;;20.08;17.20;;;-1.60;99.90;;;;;;5002808;28;20048;-72
2022/02/28 03:22:36;;;;;;;19.27;16.98;;;-1.70;99.90;;;;;;4998779;28;20026;-72
2022/02/28 03:25:01;;;;;;;19.02;16.98;;;-1.70;99.90;;;;;;5000191;28;20029;-72
2022/02/28 03:27:27;;;;;;;20.33;17.85;;;-1.70;99.90;;;;;;5011632;28;20118;-72
2022/02/28 03:29:52;;;;;;;20.75;18.55;;;-1.80;99.90;;;;;;5011383;28;20029;-72
2022/02/28 03:32:18;;;;;;;26.20;23.23;;;-1.90;99.90;;;;;;5011351;28;20057;-72
2022/02/28 03:34:43;;;;;;;23.13;19.50;;;-1.80;99.90;;;;;;4993318;28;20022;-72
2022/02/28 03:37:09;;;;;;;22.65;18.13;;;-1.80;99.90;;;;;;4991741;28;20030;-73
2022/02/28 03:39:34;;;;;;;21.08;18.52;;;-1.80;99.90;;;;;;4991934;28;20026;-73
2022/02/28 03:42:00;;;;;;;19.73;17.63;;;-1.70;99.90;;;;;;4991649;28;20049;-73
2022/02/28 03:44:25;;;;;;;20.77;17.90;;;-1.90;99.90;;;;;;4997158;28;20049;-73
2022/02/28 03:46:52;;;;;;;21.00;17.75;;;-1.90;99.90;;;;;;5007933;28;20093;-72
2022/02/28 03:49:19;;;;;;;20.33;17.38;;;-1.90;99.90;;;;;;5009425;28;20022;-72
2022/02/28 03:51:44;;;;;;;20.38;17.38;;;-2.00;99.90;;;;;;5003050;28;20022;-72
2022/02/28 03:54:11;;;;;;;20.85;17.65;;;-1.90;99.90;;;;;;5001441;28;20034;-72
2022/02/28 03:56:41;;;;;;;20.77;18.13;;;-1.90;99.90;;;;;;4999696;28;20097;-72
2022/02/28 03:59:08;;;;;;;19.67;17.05;;;-1.90;99.90;;;;;;4974120;28;20085;-73
2022/02/28 04:01:34;;;;;;;22.23;17.83;;;-1.90;99.90;;;;;;5001101;28;20021;-73
2022/02/28 04:04:01;;;;;;;21.52;17.52;;;-2.00;99.90;;;;;;4998551;28;20396;-73
2022/02/28 04:06:26;;;;;;;21.63;19.08;;;-2.10;99.90;;;;;;4991452;28;20388;-73
2022/02/28 04:08:52;;;;;;;23.33;19.90;;;-2.00;99.90;;;;;;4974025;28;20026;-72
2022/02/28 04:11:18;;;;;;;20.83;18.30;;;-2.10;99.90;;;;;;5003189;28;20029;-73
2022/02/28 04:13:43;;;;;;;21.02;17.77;;;-2.10;99.90;;;;;;5014227;28;20018;-72
2022/02/28 04:16:09;;;;;;;19.52;17.33;;;-2.10;99.90;;;;;;5004343;28;20026;-72
2022/02/28 04:18:35;;;;;;;24.38;19.40;;;-2.20;99.90;;;;;;4979300;28;20062;-72
2022/02/28 04:21:00;;;;;;;21.33;17.30;;;-2.20;99.90;;;;;;4995176;28;20037;-72
2022/02/28 04:23:26;;;;;;;19.83;16.92;;;-2.20;99.90;;;;;;4995900;28;20027;-72
2022/02/28 04:25:51;;;;;;;23.52;18.42;;;-2.00;99.90;;;;;;5010134;28;20033;-72
2022/02/28 04:28:17;;;;;;;20.40;17.77;;;-2.00;99.90;;;;;;4995577;28;20029;-72
2022/02/28 04:30:43;;;;;;;22.75;18.13;;;-2.00;99.90;;;;;;5002515;28;20468;-73
2022/02/28 04:33:08;;;;;;;22.60;17.52;;;-2.20;99.90;;;;;;5012729;28;20026;-72
2022/02/28 04:35:34;;;;;;;21.33;18.05;;;-2.30;99.90;;;;;;5004710;28;20018;-72
2022/02/28 04:38:03;;;;;;;21.95;18.55;;;-2.10;99.90;;;;;;5014215;28;20392;-73
2022/02/28 04:40:28;;;;;;;22.63;18.17;;;-2.10;99.90;;;;;;4984925;28;20053;-72
2022/02/28 04:42:54;;;;;;;20.77;18.50;;;-2.10;99.90;;;;;;5013039;28;20479;-72
2022/02/28 04:45:19;;;;;;;22.20;18.73;;;-2.30;99.90;;;;;;5002861;28;20054;-72
2022/02/28 04:47:45;;;;;;;20.13;17.33;;;-2.30;99.90;;;;;;5012677;28;20033;-72
2022/02/28 04:50:11;;;;;;;21.70;19.05;;;-2.20;99.90;;;;;;5013945;28;20109;-72
2022/02/28 04:52:36;;;;;;;37.40;30.50;;;-2.30;99.90;;;;;;4995651;28;20030;-72
2022/02/28 04:55:02;;;;;;;22.33;19.08;;;-2.30;99.90;;;;;;5006195;28;20033;-72
2022/02/28 04:57:29;;;;;;;22.23;18.80;;;-2.20;99.90;;;;;;5014130;28;20042;-76
2022/02/28 04:59:56;;;;;;;22.67;20.27;;;-2.30;99.90;;;;;;5002189;28;20034;-75
2022/02/28 05:02:21;;;;;;;21.13;18.83;;;-2.40;99.90;;;;;;5007241;28;20022;-74
2022/02/28 05:04:47;;;;;;;23.42;19.42;;;-2.40;99.90;;;;;;5005957;28;20512;-74
2022/02/28 05:07:12;;;;;;;22.50;19.52;;;-2.50;99.90;;;;;;4995589;28;20027;-74
2022/02/28 05:09:38;;;;;;;21.33;19.05;;;-2.50;99.90;;;;;;4994201;28;20476;-73
2022/02/28 05:12:03;;;;;;;23.90;19.70;;;-2.40;99.90;;;;;;5008333;28;20081;-73
2022/02/28 05:14:29;;;;;;;23.65;19.73;;;-2.40;99.90;;;;;;5002514;28;20026;-73
2022/02/28 05:16:54;;;;;;;23.23;20.08;;;-2.60;99.90;;;;;;4994020;28;20029;-74
2022/02/28 05:19:20;;;;;;;23.95;19.08;;;-2.50;99.90;;;;;;5002777;28;20030;-73
2022/02/28 05:21:45;;;;;;;24.38;19.20;;;-2.40;99.90;;;;;;5012981;28;20109;-73
2022/02/28 05:24:11;;;;;;;23.25;18.67;;;-2.50;99.90;;;;;;5010564;28;20040;-74
2022/02/28 05:26:36;;;;;;;22.15;19.50;;;-2.50;99.90;;;;;;5008060;28;20105;-74
2022/02/28 05:29:02;;;;;;;23.63;19.83;;;-2.60;99.90;;;;;;5006548;28;20057;-73
2022/02/28 05:31:28;;;;;;;28.50;18.80;;;-2.70;99.90;;;;;;5003074;28;20022;-74
2022/02/28 05:33:53;;;;;;;28.40;19.05;;;-2.60;99.90;;;;;;4987708;28;20080;-74
2022/02/28 05:36:19;;;;;;;23.48;20.25;;;-2.70;99.90;;;;;;5013208;28;20080;-74
2022/02/28 05:38:44;;;;;;;24.02;20.17;;;-2.50;99.90;;;;;;5001917;28;20034;-74
2022/02/28 05:41:10;;;;;;;22.20;19.83;;;-2.60;99.90;;;;;;5010763;28;20589;-73
2022/02/28 05:43:35;;;;;;;25.63;20.65;;;-2.50;99.90;;;;;;5013017;28;20045;-74
2022/02/28 05:46:01;;;;;;;23.23;20.65;;;-2.40;99.90;;;;;;5006826;28;20108;-74
2022/02/28 05:48:27;;;;;;;23.15;20.58;;;-2.50;99.90;;;;;;5002831;28;20387;-75
2022/02/28 05:50:52;;;;;;;25.20;20.25;;;-2.50;99.90;;;;;;4998464;28;20121;-74
2022/02/28 05:53:18;;;;;;;25.52;20.70;;;-2.70;99.90;;;;;;5001381;28;20034;-75
2022/02/28 05:55:43;;;;;;;24.75;20.45;;;-2.60;99.90;;;;;;5009873;28;20101;-75
2022/02/28 05:58:09;;;;;;;22.42;19.25;;;-2.40;99.90;;;;;;5002136;28;20125;-75
2022/02/28 06:00:35;;;;;;;23.15;19.00;;;-2.40;99.90;;;;;;5006330;28;20035;-75
2022/02/28 06:03:00;;;;;;;20.92;17.70;;;-2.20;99.90;;;;;;5003681;28;20506;-75
2022/02/28 06:05:26;;;;;;;22.65;17.52;;;-2.30;99.90;;;;;;5009190;28;20031;-73
2022/02/28 06:07:51;;;;;;;22.38;17.75;;;-2.20;99.90;;;;;;5002958;28;20044;-75
2022/02/28 06:10:17;;;;;;;20.77;17.70;;;-2.30;99.90;;;;;;4999126;28;20026;-75
2022/02/28 06:12:42;;;;;;;23.80;18.13;;;-2.30;99.90;;;;;;5012652;28;20543;-74
2022/02/28 06:15:09;;;;;;;23.58;18.77;;;-2.20;99.90;;;;;;5014492;28;20479;-74
2022/02/28 06:17:35;;;;;;;20.20;16.23;;;-2.40;99.90;;;;;;5012615;28;20033;-74
2022/02/28 06:20:03;;;;;;;21.88;18.80;;;-2.40;99.90;;;;;;4999345;28;20026;-74
2022/02/28 06:22:30;;;;;;;22.92;18.25;;;-2.40;99.90;;;;;;5012303;28;20029;-75
2022/02/28 06:24:56;;;;;;;23.02;19.00;;;-2.40;99.90;;;;;;5005561;28;20100;-74
2022/02/28 06:27:22;;;;;;;22.40;18.85;;;-2.30;99.90;;;;;;5012339;28;20101;-74
2022/02/28 06:29:47;;;;;;;21.23;18.92;;;-2.20;99.90;;;;;;4999157;28;20030;-74
2022/02/28 06:32:13;;;;;;;20.83;18.55;;;-2.30;99.90;;;;;;5010503;28;20072;-74
2022/02/28 06:34:38;;;;;;;22.80;19.65;;;-2.40;99.90;;;;;;5011649;28;20026;-74
2022/02/28 06:37:04;;;;;;;25.05;18.80;;;-2.30;99.90;;;;;;5012036;28;20253;-74
2022/02/28 06:39:29;;;;;;;20.38;18.17;;;-2.40;99.90;;;;;;4999777;28;20109;-73
2022/02/28 06:41:55;;;;;;;24.50;18.00;;;-2.30;99.90;;;;;;5011860;28;20116;-74
2022/02/28 06:44:21;;;;;;;23.13;18.92;;;-2.10;99.90;;;;;;5011842;28;20025;-74
2022/02/28 06:46:46;;;;;;;21.52;19.20;;;-2.00;99.90;;;;;;5001648;28;20081;-74
2022/02/28 06:49:12;;;;;;;21.88;19.02;;;-2.00;99.90;;;;;;5005491;28;20472;-74
2022/02/28 06:51:37;;;;;;;23.50;19.30;;;-2.00;99.90;;;;;;5002559;28;20021;-74
2022/02/28 06:54:03;;;;;;;25.20;19.38;;;-1.70;99.90;;;;;;5008242;28;20041;-75
2022/02/28 06:56:29;;;;;;;22.38;18.90;;;-1.70;99.90;;;;;;4985167;28;20037;-74
2022/02/28 06:58:55;;;;;;;21.83;18.35;;;-1.70;99.90;;;;;;5003655;28;20029;-74
2022/02/28 07:01:20;;;;;;;22.35;19.17;;;-1.60;99.90;;;;;;5011711;28;20026;-74
2022/02/28 07:03:46;;;;;;;24.27;19.02;;;-1.60;99.90;;;;;;5012333;28;20022;-74
2022/02/28 07:06:14;;;;;;;23.77;17.92;;;-1.50;99.90;;;;;;5004077;28;20033;-74
2022/02/28 07:08:40;;;;;;;21.65;18.95;;;-1.50;99.90;;;;;;4998858;28;20041;-74
2022/02/28 07:11:07;;;;;;;23.02;18.90;;;-1.40;99.90;;;;;;5011661;28;20475;-74
2022/02/28 07:13:33;;;;;;;23.83;18.33;;;-1.30;99.90;;;;;;4981059;28;20030;-74
2022/02/28 07:15:58;;;;;;;22.48;19.60;;;-1.30;99.90;;;;;;5011591;28;20026;-74
2022/02/28 07:18:24;;;;;;;20.42;17.92;;;-1.10;99.90;;;;;;5008179;28;20025;-74
2022/02/28 07:20:50;;;;;;;24.85;19.50;;;-1.10;99.90;;;;;;4991981;28;20029;-74
2022/02/28 07:23:16;;;;;;;21.15;18.80;;;-1.00;99.90;;;;;;4987774;28;20117;-74
2022/02/28 07:25:42;;;;;;;22.42;19.15;;;-0.90;99.90;;;;;;5008902;28;20080;-74
2022/02/28 07:28:07;;;;;;;23.30;17.90;;;-0.80;99.90;;;;;;5007270;28;20027;-74
2022/02/28 07:30:33;;;;;;;23.73;19.45;;;-0.80;99.90;;;;;;4991910;28;20033;-74
2022/02/28 07:32:58;;;;;;;22.10;18.98;;;-0.70;99.90;;;;;;5005310;28;20780;-74
2022/02/28 07:35:24;;;;;;;22.73;20.23;;;-0.70;99.90;;;;;;5002583;28;20014;-74
2022/02/28 07:37:50;;;;;;;23.02;18.95;;;-0.60;99.90;;;;;;4997846;28;20034;-73
2022/02/28 07:40:15;;;;;;;22.95;19.92;;;-0.50;99.90;;;;;;5000934;28;20089;-74
2022/02/28 07:42:42;;;;;;;21.40;18.75;;;-0.50;99.90;;;;;;5005350;28;20148;-74
2022/02/28 07:45:09;;;;;;;23.10;18.98;;;-0.40;99.90;;;;;;5003187;28;20117;-74
2022/02/28 07:47:34;;;;;;;24.27;19.42;;;-0.30;99.90;;;;;;5014402;28;20457;-74
2022/02/28 07:50:01;;;;;;;22.60;18.75;;;-0.20;99.90;;;;;;5005005;28;20050;-74
2022/02/28 07:52:26;;;;;;;21.88;19.42;;;-0.20;99.90;;;;;;4981472;28;20045;-74
2022/02/28 07:54:52;;;;;;;22.88;19.30;;;-0.10;99.90;;;;;;5013173;28;20018;-74
2022/02/28 07:57:17;;;;;;;24.73;19.08;;;0.00;99.90;;;;;;5014926;28;20041;-74
2022/02/28 07:59:43;;;;;;;27.70;23.83;;;0.00;99.90;;;;;;5004831;28;20313;-74
2022/02/28 08:02:09;;;;;;;25.10;20.10;;;0.10;99.90;;;;;;5011786;28;20377;-74
2022/02/28 08:04:34;;;;;;;21.83;17.80;;;0.10;99.90;;;;;;4987678;28;20119;-74
2022/02/28 08:07:00;;;;;;;19.88;17.77;;;0.20;99.90;;;;;;4981185;28;20392;-74
2022/02/28 08:09:26;;;;;;;21.08;18.30;;;0.20;99.90;;;;;;4997288;28;20037;-74
2022/02/28 08:11:53;;;;;;;21.83;18.40;;;0.20;99.90;;;;;;5001472;28;20096;-74
2022/02/28 08:14:19;;;;;;;22.60;17.67;;;0.30;99.90;;;;;;5014690;28;20026;-74
2022/02/28 08:16:45;;;;;;;21.67;17.65;;;0.40;99.90;;;;;;5011399;28;20390;-74
2022/02/28 08:19:11;;;;;;;21.80;18.08;;;0.50;99.90;;;;;;5008173;28;20026;-74
2022/02/28 08:21:36;;;;;;;24.42;19.13;;;0.60;99.90;;;;;;5028378;28;20438;-74
2022/02/28 08:24:02;;;;;;;21.90;17.55;;;0.80;99.90;;;;;;5022334;28;20040;-73
2022/02/28 08:26:28;;;;;;;20.05;17.75;;;0.80;99.90;;;;;;5004419;28;20052;-74
2022/02/28 08:28:53;;;;;;;23.73;17.98;;;0.90;99.90;;;;;;5003751;28;20121;-74
2022/02/28 08:31:19;;;;;;;22.08;17.75;;;0.90;99.90;;;;;;5009739;28;20038;-74
2022/02/28 08:33:44;;;;;;;22.50;18.27;;;0.90;99.90;;;;;;5000737;28;20104;-74
2022/02/28 08:36:10;;;;;;;21.27;18.25;;;1.00;99.90;;;;;;5001183;28;20472;-74
2022/02/28 08:38:35;;;;;;;23.35;18.42;;;1.10;99.90;;;;;;5004207;28;20057;-74
2022/02/28 08:41:01;;;;;;;23.10;17.00;;;1.10;99.90;;;;;;4993574;28;20029;-74
2022/02/28 08:43:27;;;;;;;21.63;17.80;;;1.00;99.90;;;;;;5014218;28;20080;-74
2022/02/28 08:45:53;;;;;;;21.65;17.98;;;1.10;99.90;;;;;;4983427;28;20017;-74
2022/02/28 08:48:19;;;;;;;21.58;18.63;;;1.20;99.90;;;;;;5012306;28;20034;-74
2022/02/28 08:50:44;;;;;;;20.77;17.27;;;1.30;99.90;;;;;;5013815;28;20032;-74
2022/02/28 08:53:10;;;;;;;19.33;17.30;;;1.40;99.90;;;;;;5004636;28;20043;-74
2022/02/28 08:55:35;;;;;;;22.00;17.42;;;1.50;99.90;;;;;;5010492;28;20030;-74
2022/02/28 08:58:01;;;;;;;26.67;22.23;;;1.60;99.90;;;;;;5003679;28;20049;-74
2022/02/28 09:00:28;;;;;;;30.20;18.98;;;1.60;99.90;;;;;;5007372;28;20033;-74
2022/02/28 09:02:54;;;;;;;21.80;18.25;;;1.70;99.90;;;;;;5003657;28;20022;-74
2022/02/28 09:05:19;;;;;;;20.98;16.90;;;1.80;99.90;;;;;;4980489;28;20023;-74
2022/02/28 09:07:46;;;;;;;21.10;17.77;;;1.90;99.90;;;;;;4985862;28;20511;-75
2022/02/28 09:10:12;;;;;;;22.52;18.13;;;1.90;99.90;;;;;;4996017;28;20014;-75
2022/02/28 09:12:38;;;;;;;23.70;17.83;;;2.00;99.90;;;;;;5004319;28;20412;-74
2022/02/28 09:15:04;;;;;;;21.27;16.77;;;2.00;99.90;;;;;;4991380;28;20029;-74
2022/02/28 09:17:32;;;;;;;19.70;16.33;;;2.00;99.90;;;;;;5013410;28;20034;-74
2022/02/28 09:19:58;;;;;;;24.90;17.20;;;2.10;99.90;;;;;;5000282;28;20072;-73
2022/02/28 09:22:24;;;;;;;20.25;16.00;;;2.30;99.90;;;;;;5013329;28;20056;-74
2022/02/28 09:24:49;;;;;;;18.42;15.98;;;2.40;99.90;;;;;;5013315;28;20049;-74
2022/02/28 09:27:15;;;;;;;18.33;16.10;;;2.30;99.90;;;;;;5013238;28;20458;-74
2022/02/28 09:29:40;;;;;;;19.92;16.33;;;2.30;99.90;;;;;;5000042;28;20109;-76
2022/02/28 09:32:06;;;;;;;19.23;16.80;;;2.40;99.90;;;;;;5003033;28;20030;-74
2022/02/28 09:34:32;;;;;;;19.27;16.13;;;2.50;99.90;;;;;;5010161;28;20034;-74
2022/02/28 09:36:59;;;;;;;19.38;15.90;;;2.50;99.90;;;;;;5003336;28;20158;-73
2022/02/28 09:39:25;;;;;;;20.05;15.45;;;2.50;99.90;;;;;;5006869;28;20034;-74
2022/02/28 09:41:52;;;;;;;19.40;15.77;;;2.50;99.90;;;;;;5012445;28;20034;-74
2022/02/28 09:44:21;;;;;;;18.05;14.50;;;2.60;99.90;;;;;;5000169;28;20367;-74
2022/02/28 09:46:47;;;;;;;20.88;14.38;;;2.70;99.90;;;;;;5002337;28;20056;-74
2022/02/28 09:49:12;;;;;;;22.80;15.90;;;2.90;99.90;;;;;;5010833;28;20112;-74
2022/02/28 09:51:39;;;;;;;19.23;14.82;;;3.00;99.90;;;;;;5002236;28;20116;-74
2022/02/28 09:54:05;;;;;;;19.00;15.15;;;3.10;99.90;;;;;;4988885;28;20034;-74
2022/02/28 09:56:32;;;;;;;18.58;14.07;;;3.20;99.90;;;;;;4986433;28;20033;-74
2022/02/28 09:58:58;;;;;;;19.23;15.50;;;3.20;99.90;;;;;;4982282;28;20021;-74
2022/02/28 10:01:24;;;;;;;16.02;13.40;;;3.20;99.90;;;;;;5002529;28;20481;-74
2022/02/28 10:03:50;;;;;;;15.57;13.23;;;3.40;99.90;;;;;;4994035;28;20030;-74
2022/02/28 10:06:15;;;;;;;17.63;13.90;;;3.30;99.90;;;;;;5001676;28;20472;-74
2022/02/28 10:08:46;;;;;;;16.80;13.80;;;3.30;99.90;;;;;;5006001;28;20026;-74
2022/02/28 10:11:30;;;;;;;19.40;14.43;;;3.50;99.90;;;;;;5003419;28;20030;-72
2022/02/28 10:14:02;;;;;;;17.15;12.88;;;3.40;99.90;;;;;;5012520;28;20025;-72
2022/02/28 10:16:43;;;;;;;15.20;12.55;;;3.50;99.90;;;;;;5011009;28;20068;-74
2022/02/28 10:19:20;;;;;;;15.45;12.50;;;3.40;99.90;;;;;;4978553;28;20026;-74
2022/02/28 10:21:47;;;;;;;15.00;12.85;;;3.50;99.90;;;;;;5010129;28;20419;-74
2022/02/28 10:24:29;;;;;;;17.70;13.73;;;3.70;99.90;;;;;;5012340;28;20496;-74
2022/02/28 10:26:58;;;;;;;15.80;13.50;;;3.90;99.90;;;;;;5011998;28;20088;-74
2022/02/28 10:29:30;;;;;;;14.93;12.95;;;3.70;99.90;;;;;;5010903;28;20089;-72
2022/02/28 10:32:15;;;;;;;15.02;12.57;;;3.80;99.90;;;;;;5001236;28;20109;-74
2022/02/28 10:37:43;;;;;;;14.27;12.70;;;3.80;99.90;;;;;;4985711;28;20027;-74
2022/02/28 10:40:09;;;;;;;15.05;12.65;;;3.90;99.90;;;;;;5002701;28;20396;-74
2022/02/28 10:42:50;;;;;;;16.98;12.90;;;3.80;99.90;;;;;;4988052;28;20037;-74
2022/02/28 10:45:22;;;;;;;14.93;12.60;;;3.90;99.90;;;;;;4986537;28;20034;-74
2022/02/28 10:47:49;;;;;;;16.20;13.25;;;3.90;99.90;;;;;;4988594;28;20030;-74
2022/02/28 10:50:37;;;;;;;16.08;13.07;;;4.10;99.90;;;;;;5004830;28;20065;-74
2022/02/28 10:53:04;;;;;;;15.88;12.38;;;4.30;99.90;;;;;;5001586;28;20492;-74
2022/02/28 10:55:33;;;;;;;15.63;12.60;;;4.10;99.90;;;;;;4998740;28;20511;-74
2022/02/28 10:58:08;;;;;;;16.80;13.13;;;4.20;99.90;;;;;;5002200;28;20088;-74
2022/02/28 11:00:54;;;;;;;17.08;13.02;;;4.30;99.90;;;;;;5005210;28;20041;-74
2022/02/28 11:03:20;;;;;;;16.00;12.68;;;4.40;99.90;;;;;;5005039;28;20124;-74
2022/02/28 11:05:50;;;;;;;15.50;12.70;;;4.20;99.90;;;;;;4992359;28;20056;-74
2022/02/28 11:08:20;;;;;;;15.10;12.88;;;4.20;99.90;;;;;;4992744;28;20105;-74
2022/02/28 11:10:47;;;;;;;14.70;12.95;;;4.30;99.90;;;;;;4986421;28;20455;-74
2022/02/28 11:13:13;;;;;;;18.52;12.23;;;4.40;99.90;;;;;;4994598;28;20026;-73
2022/02/28 11:15:39;;;;;;;13.73;11.73;;;4.40;99.90;;;;;;4999631;28;20109;-73
2022/02/28 11:18:05;;;;;;;15.10;11.88;;;4.60;99.90;;;;;;5000848;28;20033;-73
2022/02/28 11:20:30;;;;;;;13.18;11.45;;;4.80;99.90;;;;;;4998443;28;20021;-73
2022/02/28 11:22:57;;;;;;;14.50;11.52;;;4.80;99.90;;;;;;5029361;28;20036;-73
2022/02/28 11:25:22;;;;;;;14.35;11.55;;;4.70;99.90;;;;;;5028296;28;20029;-72
2022/02/28 11:27:50;;;;;;;14.55;11.45;;;4.80;99.90;;;;;;5009653;28;20030;-72
2022/02/28 11:30:23;;;;;;;13.60;10.82;;;4.90;99.90;;;;;;5015173;28;20017;-73
2022/02/28 11:32:57;;;;;;;13.40;10.55;;;4.90;99.90;;;;;;5013492;28;20065;-73
2022/02/28 11:35:37;;;;;;;13.40;10.07;;;4.90;99.90;;;;;;4998780;28;20391;-73
2022/02/28 11:38:15;;;;;;;15.27;11.45;;;5.00;99.90;;;;;;5010067;28;20030;-73
2022/02/28 11:40:42;;;;;;;13.45;10.57;;;5.10;99.90;;;;;;5014412;28;20029;-73
2022/02/28 11:43:19;;;;;;;14.07;10.82;;;5.10;99.90;;;;;;5017423;28;20403;-73
2022/02/28 11:45:51;;;;;;;13.45;10.70;;;5.00;99.90;;;;;;5012028;28;20029;-73
2022/02/28 11:48:50;;;;;;;11.02;9.48;;;5.00;99.90;;;;;;5014772;28;20105;-73
2022/02/28 11:51:21;;;;;;;10.82;8.80;;;5.20;99.90;;;;;;5015837;28;20143;-73
2022/02/28 11:53:48;;;;;;;13.98;8.98;;;5.40;99.90;;;;;;5000107;28;20415;-73
2022/02/28 11:56:17;;;;;;;13.68;9.05;;;5.30;99.90;;;;;;5020536;28;20018;-73
2022/02/28 11:59:14;;;;;;;11.35;9.32;;;5.40;99.90;;;;;;5030804;28;20033;-73
2022/02/28 12:01:41;;;;;;;;;;;5.50;99.90;;;;;;5010144;28;20105;-73
2022/02/28 12:04:17;;;;;;;11.30;9.13;;;5.60;99.90;;;;;;5014310;28;19905;-73
2022/02/28 12:07:05;;;;;;;11.10;8.70;;;6.50;99.90;;;;;;5016078;28;20033;-73
2022/02/28 12:09:33;;;;;;;10.90;8.35;;;6.60;99.90;;;;;;4990988;28;20087;-73
2022/02/28 12:12:27;;;;;;;9.63;7.65;;;7.00;99.90;;;;;;5010746;28;20021;-73
2022/02/28 12:15:04;;;;;;;10.55;7.75;;;7.90;99.90;;;;;;5032320;28;20017;-73
2022/02/28 12:17:37;;;;;;;9.70;7.63;;;8.20;99.90;;;;;;5011046;28;20025;-74
2022/02/28 12:20:14;;;;;;;8.93;6.53;;;8.50;99.90;;;;;;5027625;28;20029;-73
2022/02/28 12:22:54;;;;;;;8.70;6.60;;;8.90;98.10;;;;;;5028028;28;20014;-73
2022/02/28 12:25:38;;;;;;;10.23;7.38;;;8.80;98.20;;;;;;5026899;28;20028;-73
2022/02/28 12:28:24;;;;;;;8.63;7.13;;;8.80;98.10;;;;;;5016076;28;20030;-73
2022/02/28 12:31:32;;;;;;;10.27;7.50;;;9.10;96.40;;;;;;5023785;28;20167;-73
2022/02/28 12:34:00;;;;;;;12.15;6.97;;;9.80;96.10;;;;;;4983617;28;20415;-74
2022/02/28 12:36:33;;;;;;;11.65;7.22;;;9.20;95.60;;;;;;5007185;28;20108;-73